Tallant, Oklahoma
Current Conditions -  °F | °C
As of 12:53 PM on Friday 28 Nov 2014 (Local Time) from KBVO Reporting Station
Clear Clear  
Wind Chill: 62°   Ceiling: Unl
Heat Index: 62°   Visibility: 10mi
Dew Point: 34°   Wind: 16mph
Humidity: 35%   Direction: 190°S
Pressure: 29.95"   Gusts: 23mph
Location:  36.5242°N, 96.1387°W
Report Text: KBVO 281853Z AUTO 19014G20KT 10SM CLR 17/01 A2995 RMK AO2 SLP141 T01670011
Loading
Personal Weather Stations






























Interactive Weather Map New forecast layout! Learn more

10-Day Weather Forecast

Advertisements
Track Severe Weather on mobile